Time;durP1;ratioP1;P1;durP2;ratioP2;P2;SDS_P1;SDS_P2;PMS_P1;PMS_P2;Temp;Humidity;BMP_temperature;BMP_pressure;BME280_temperature;BME280_humidity;BME280_pressure;Samples;Min_cycle;Max_cycle;Signal;HPM_P1;HPM_P2
2022/03/20 00:01:02;;;;;;;9.55;4.07;;;6.30;99.90;;;;;;5096008;28;20029;-70
2022/03/20 00:03:29;;;;;;;10.20;4.35;;;6.30;99.90;;;;;;5093596;28;20040;-71
2022/03/20 00:05:54;;;;;;;9.27;4.28;;;6.20;99.90;;;;;;5090212;28;20492;-72
2022/03/20 00:08:20;;;;;;;8.35;4.00;;;6.20;99.90;;;;;;5092983;28;20040;-71
2022/03/20 00:10:51;;;;;;;9.38;3.92;;;6.20;99.90;;;;;;5091203;28;20450;-70
2022/03/20 00:13:19;;;;;;;9.07;4.57;;;6.20;99.90;;;;;;5097210;28;20046;-72
2022/03/20 00:15:47;;;;;;;8.52;4.03;;;6.20;99.90;;;;;;5103391;28;20065;-71
2022/03/20 00:18:14;;;;;;;9.25;4.53;;;6.20;99.90;;;;;;5091907;28;20066;-71
2022/03/20 00:20:46;;;;;;;7.88;4.20;;;6.20;99.90;;;;;;5099716;28;20425;-71
2022/03/20 00:23:13;;;;;;;9.32;4.72;;;6.10;99.90;;;;;;5094036;28;20074;-71
2022/03/20 00:25:44;;;;;;;8.73;4.10;;;6.10;99.90;;;;;;5079530;28;20040;-71
2022/03/20 00:28:11;;;;;;;8.05;4.13;;;6.10;99.90;;;;;;5096575;27;20082;-71
2022/03/20 00:30:36;;;;;;;7.25;4.32;;;6.10;99.90;;;;;;5097028;28;20051;-70
2022/03/20 00:33:02;;;;;;;10.10;4.50;;;6.00;99.90;;;;;;5097200;28;20044;-71
2022/03/20 00:35:29;;;;;;;8.23;4.75;;;6.00;99.90;;;;;;5078652;28;20126;-72
2022/03/20 00:37:55;;;;;;;10.05;4.57;;;6.00;99.90;;;;;;5093281;28;20123;-72
2022/03/20 00:40:21;;;;;;;9.15;4.15;;;6.00;99.90;;;;;;5091416;28;20036;-71
2022/03/20 00:42:46;;;;;;;8.60;4.30;;;6.00;99.90;;;;;;5092666;28;20062;-72
2022/03/20 00:45:12;;;;;;;7.88;4.50;;;6.00;99.90;;;;;;5094536;27;20035;-71
2022/03/20 00:47:38;;;;;;;10.40;4.30;;;6.00;99.90;;;;;;5090738;28;20039;-72
2022/03/20 00:50:04;;;;;;;9.65;4.20;;;6.00;99.90;;;;;;5094368;28;20027;-71
2022/03/20 00:52:32;;;;;;;8.63;4.57;;;5.90;99.90;;;;;;5100365;28;20031;-71
2022/03/20 00:54:58;;;;;;;10.15;5.00;;;5.90;99.90;;;;;;5089633;28;20052;-71
2022/03/20 00:57:23;;;;;;;11.07;4.80;;;5.90;99.90;;;;;;5092469;28;20126;-72
2022/03/20 00:59:49;;;;;;;9.55;4.47;;;5.90;99.90;;;;;;5095215;28;20124;-71
2022/03/20 01:02:15;;;;;;;10.50;4.32;;;5.80;99.90;;;;;;5098153;28;20093;-71
2022/03/20 01:04:41;;;;;;;8.32;4.20;;;5.80;99.90;;;;;;5084660;28;20481;-71
2022/03/20 01:07:07;;;;;;;11.70;4.65;;;5.80;99.90;;;;;;5097840;28;20058;-71
2022/03/20 01:09:33;;;;;;;9.10;5.00;;;5.80;99.90;;;;;;5086490;28;20039;-71
2022/03/20 01:12:01;;;;;;;9.93;4.47;;;5.80;99.90;;;;;;5078740;28;20535;-71
2022/03/20 01:14:27;;;;;;;11.48;5.20;;;5.80;99.90;;;;;;5080933;28;20039;-71
2022/03/20 01:16:54;;;;;;;11.43;5.00;;;5.80;99.90;;;;;;5091988;28;20079;-72
2022/03/20 01:19:21;;;;;;;10.15;4.93;;;5.70;99.90;;;;;;5091913;27;20040;-72
2022/03/20 01:21:47;;;;;;;10.18;5.10;;;5.70;99.90;;;;;;5094692;28;20542;-72
2022/03/20 01:24:12;;;;;;;10.23;5.20;;;5.70;99.90;;;;;;5093874;28;20154;-71
2022/03/20 01:26:38;;;;;;;10.05;5.32;;;5.70;99.90;;;;;;5102347;28;20224;-72
2022/03/20 01:29:07;;;;;;;9.95;5.53;;;5.70;99.90;;;;;;5070104;28;20517;-72
2022/03/20 01:31:33;;;;;;;13.13;5.53;;;5.70;99.90;;;;;;5082342;28;20043;-71
2022/03/20 01:33:59;;;;;;;10.52;5.78;;;5.60;99.90;;;;;;5104553;28;20058;-71
2022/03/20 01:36:25;;;;;;;12.85;6.38;;;5.60;99.90;;;;;;5106603;27;20042;-72
2022/03/20 01:38:52;;;;;;;11.75;6.20;;;5.60;99.90;;;;;;5098901;28;20047;-72
2022/03/20 01:41:17;;;;;;;9.50;6.20;;;5.60;99.90;;;;;;5107192;28;20043;-71
2022/03/20 01:43:57;;;;;;;11.65;6.65;;;5.60;99.90;;;;;;5104072;28;20396;-71
2022/03/20 01:46:23;;;;;;;13.45;6.60;;;5.60;99.90;;;;;;5106174;28;20062;-72
2022/03/20 01:48:50;;;;;;;10.82;6.65;;;5.60;99.90;;;;;;5097183;28;20056;-71
2022/03/20 01:51:16;;;;;;;12.30;7.00;;;5.50;99.90;;;;;;5097000;28;20425;-72
2022/03/20 01:53:43;;;;;;;11.60;7.35;;;5.50;99.90;;;;;;5089811;28;20076;-72
2022/03/20 01:56:08;;;;;;;13.13;7.32;;;5.50;99.90;;;;;;5094600;28;20389;-71
2022/03/20 01:58:34;;;;;;;12.32;7.72;;;5.40;99.90;;;;;;5093712;28;20048;-72
2022/03/20 02:01:01;;;;;;;11.52;7.05;;;5.40;99.90;;;;;;5099406;28;20519;-71
2022/03/20 02:03:27;;;;;;;12.48;7.78;;;5.40;99.90;;;;;;5106122;28;20048;-70
2022/03/20 02:05:53;;;;;;;13.65;7.30;;;5.40;99.90;;;;;;5083224;28;20085;-71
2022/03/20 02:08:25;;;;;;;11.50;7.63;;;5.40;99.90;;;;;;5101107;28;20354;-72
2022/03/20 02:10:54;;;;;;;11.45;6.22;;;5.30;99.90;;;;;;5095980;28;20101;-72
2022/03/20 02:13:23;;;;;;;12.95;7.30;;;5.30;99.90;;;;;;5096352;28;20084;-71
2022/03/20 02:15:52;;;;;;;11.38;6.78;;;5.20;99.90;;;;;;5082895;28;20438;-72
2022/03/20 02:18:20;;;;;;;13.80;7.35;;;5.10;99.90;;;;;;5094513;28;20043;-73
2022/03/20 02:20:47;;;;;;;12.85;7.15;;;5.10;99.90;;;;;;5096236;28;20050;-71
2022/03/20 02:23:13;;;;;;;11.20;7.10;;;5.10;99.90;;;;;;5095504;28;20264;-71
2022/03/20 02:25:50;;;;;;;11.55;6.57;;;5.00;99.90;;;;;;5096145;28;20036;-71
2022/03/20 02:28:16;;;;;;;12.25;7.53;;;5.00;99.90;;;;;;5061568;28;20036;-72
2022/03/20 02:30:42;;;;;;;14.57;7.15;;;4.90;99.90;;;;;;5095788;28;20081;-71
2022/03/20 02:33:08;;;;;;;11.18;6.90;;;4.80;99.90;;;;;;5103839;28;20075;-71
2022/03/20 02:35:34;;;;;;;12.35;6.75;;;4.70;99.90;;;;;;5067874;28;20047;-71
2022/03/20 02:38:00;;;;;;;13.48;6.68;;;4.60;99.90;;;;;;5106578;28;20039;-71
2022/03/20 02:40:26;;;;;;;14.48;6.82;;;4.50;99.90;;;;;;5096895;28;20036;-71
2022/03/20 02:42:54;;;;;;;12.77;7.22;;;4.40;99.90;;;;;;5092352;28;20044;-71
2022/03/20 02:45:27;;;;;;;11.52;7.05;;;4.50;99.90;;;;;;5105312;28;20120;-71
2022/03/20 02:47:53;;;;;;;11.82;6.88;;;4.30;99.90;;;;;;5100671;28;20138;-71
2022/03/20 02:50:28;;;;;;;10.48;6.90;;;4.30;99.90;;;;;;5099757;28;20048;-71
2022/03/20 02:52:59;;;;;;;15.48;7.70;;;4.40;99.90;;;;;;5078780;28;20043;-71
2022/03/20 02:55:36;;;;;;;12.02;6.50;;;4.30;99.90;;;;;;5101569;28;20043;-70
2022/03/20 02:58:05;;;;;;;11.25;7.15;;;4.30;99.90;;;;;;5104346;28;20047;-71
2022/03/20 03:00:33;;;;;;;13.75;7.55;;;4.40;99.90;;;;;;5083095;28;20458;-71
2022/03/20 03:03:01;;;;;;;14.02;7.60;;;4.30;99.90;;;;;;5093189;28;20090;-71
2022/03/20 03:05:29;;;;;;;14.63;7.63;;;4.30;99.90;;;;;;5076858;28;20043;-71
2022/03/20 03:10:55;;;;;;;13.25;7.57;;;4.30;99.90;;;;;;5082813;28;20055;-72
2022/03/20 03:13:27;;;;;;;16.88;8.48;;;4.30;99.90;;;;;;5098079;28;20109;-72
2022/03/20 03:15:54;;;;;;;12.93;7.63;;;4.30;99.90;;;;;;5075273;28;20172;-71
2022/03/20 03:18:21;;;;;;;14.98;7.70;;;4.20;99.90;;;;;;5098844;27;20071;-72
2022/03/20 03:20:47;;;;;;;15.82;7.88;;;4.20;99.90;;;;;;5094031;28;20028;-72
2022/03/20 03:23:13;;;;;;;12.07;7.30;;;4.20;99.90;;;;;;5082939;28;20525;-72
2022/03/20 03:25:40;;;;;;;13.20;7.95;;;4.30;99.90;;;;;;5099147;28;20118;-72
2022/03/20 03:28:06;;;;;;;14.43;8.40;;;4.20;99.90;;;;;;5108961;28;20574;-70
2022/03/20 03:30:32;;;;;;;16.13;8.15;;;4.20;99.90;;;;;;5108439;28;20031;-70
2022/03/20 03:32:58;;;;;;;13.05;8.80;;;4.20;99.90;;;;;;5105061;28;20051;-70
2022/03/20 03:35:41;;;;;;;15.25;8.48;;;4.20;99.90;;;;;;5106959;27;20457;-73
2022/03/20 03:38:10;;;;;;;13.07;8.20;;;4.20;99.90;;;;;;5072377;28;20130;-70
2022/03/20 03:40:37;;;;;;;15.95;8.10;;;4.20;99.90;;;;;;5106317;28;20108;-71
2022/03/20 03:43:03;;;;;;;16.17;9.02;;;4.10;99.90;;;;;;5106868;28;20040;-72
2022/03/20 03:45:29;;;;;;;13.77;8.60;;;4.20;99.90;;;;;;5111063;28;20051;-72
2022/03/20 03:47:55;;;;;;;15.07;8.85;;;4.10;99.90;;;;;;5105744;28;20083;-71
2022/03/20 03:50:21;;;;;;;16.35;8.25;;;4.10;99.90;;;;;;5087034;27;20123;-71
2022/03/20 03:52:47;;;;;;;14.77;8.68;;;4.10;99.90;;;;;;5117323;27;20339;-71
2022/03/20 03:55:13;;;;;;;13.50;7.80;;;4.10;99.90;;;;;;5093592;28;20101;-71
2022/03/20 03:57:46;;;;;;;19.13;8.98;;;4.20;99.90;;;;;;5087877;28;20043;-72
2022/03/20 04:00:13;;;;;;;15.48;9.00;;;4.10;99.90;;;;;;5088369;28;20066;-71
2022/03/20 04:02:39;;;;;;;19.45;8.68;;;4.10;99.90;;;;;;5092598;28;20096;-72
2022/03/20 04:05:05;;;;;;;16.05;8.88;;;4.10;99.90;;;;;;5077351;28;20634;-72
2022/03/20 04:07:31;;;;;;;18.92;8.90;;;4.10;99.90;;;;;;5091441;28;20050;-72
2022/03/20 04:09:57;;;;;;;15.18;8.68;;;4.00;99.90;;;;;;5092301;28;20032;-72
2022/03/20 04:12:22;;;;;;;14.30;8.80;;;4.00;99.90;;;;;;5091117;28;20477;-72
2022/03/20 04:14:48;;;;;;;15.70;9.48;;;4.00;99.90;;;;;;5100697;28;20082;-71
2022/03/20 04:17:14;;;;;;;15.65;9.35;;;3.90;99.90;;;;;;5094030;28;20125;-71
2022/03/20 04:19:41;;;;;;;14.73;8.60;;;3.90;99.90;;;;;;5093079;28;21971;-72
2022/03/20 04:22:07;;;;;;;17.08;9.30;;;3.90;99.90;;;;;;5093214;28;20513;-71
2022/03/20 04:24:33;;;;;;;17.30;10.13;;;3.90;99.90;;;;;;5093749;27;20048;-71
2022/03/20 04:26:59;;;;;;;16.17;9.57;;;4.00;99.90;;;;;;5091495;28;20036;-71
2022/03/20 04:29:27;;;;;;;18.08;9.65;;;3.90;99.90;;;;;;5096022;28;20112;-72
2022/03/20 04:31:54;;;;;;;15.75;9.60;;;3.90;99.90;;;;;;5095575;28;20114;-71
2022/03/20 04:34:21;;;;;;;17.52;9.95;;;3.90;99.90;;;;;;5094307;28;20040;-72
2022/03/20 04:36:46;;;;;;;16.55;10.05;;;3.90;99.90;;;;;;5094656;28;20111;-72
2022/03/20 04:39:12;;;;;;;16.25;10.15;;;3.90;99.90;;;;;;5088503;28;20048;-71
2022/03/20 04:41:38;;;;;;;18.20;9.88;;;3.90;99.90;;;;;;5077217;27;20050;-71
2022/03/20 04:44:03;;;;;;;17.77;9.60;;;3.90;99.90;;;;;;5109110;28;20062;-72
2022/03/20 04:46:29;;;;;;;17.52;9.32;;;3.80;99.90;;;;;;5097572;28;20075;-73
2022/03/20 04:59:53;;;;;;;17.52;10.57;;;3.70;99.90;;;;;;5078413;28;20120;-72
2022/03/20 05:02:18;;;;;;;16.77;10.43;;;3.70;99.90;;;;;;5095140;28;20094;-71
2022/03/20 05:04:44;;;;;;;17.70;10.82;;;3.70;99.90;;;;;;5093435;28;20155;-71
2022/03/20 05:07:09;;;;;;;17.33;10.55;;;3.70;99.90;;;;;;5094842;28;20035;-71
2022/03/20 05:15:09;;;;;;;15.90;10.57;;;3.70;99.90;;;;;;5083503;28;20070;-71
2022/03/20 05:17:35;;;;;;;19.17;11.38;;;3.70;99.90;;;;;;5099453;27;20053;-72
2022/03/20 05:20:00;;;;;;;15.38;10.50;;;3.70;99.90;;;;;;5100937;28;20036;-72
2022/03/20 05:22:26;;;;;;;18.50;10.52;;;3.60;99.90;;;;;;5101528;28;20388;-71
2022/03/20 05:24:52;;;;;;;19.65;11.20;;;3.60;99.90;;;;;;5103115;28;20107;-72
2022/03/20 05:27:18;;;;;;;18.38;11.73;;;3.60;99.90;;;;;;5104317;28;20097;-71
2022/03/20 05:29:44;;;;;;;18.90;11.60;;;3.60;99.90;;;;;;5105435;28;20501;-71
2022/03/20 05:32:09;;;;;;;18.80;11.40;;;3.60;99.90;;;;;;5107374;28;20319;-71
2022/03/20 05:34:36;;;;;;;17.23;11.10;;;3.60;99.90;;;;;;5105814;27;20381;-72
2022/03/20 05:37:03;;;;;;;16.48;11.48;;;3.60;99.90;;;;;;5104623;28;20031;-71
2022/03/20 05:39:29;;;;;;;17.52;10.55;;;3.60;99.90;;;;;;5104879;28;20050;-72
2022/03/20 05:41:54;;;;;;;19.20;11.45;;;3.60;99.90;;;;;;5086292;28;20039;-71
2022/03/20 05:44:25;;;;;;;18.50;12.40;;;3.50;99.90;;;;;;5102847;28;20039;-71
2022/03/20 05:46:52;;;;;;;16.85;10.98;;;3.50;99.90;;;;;;5104288;28;20035;-71
2022/03/20 05:49:20;;;;;;;17.52;11.85;;;3.60;99.90;;;;;;5106394;28;20131;-72
2022/03/20 05:51:47;;;;;;;20.17;12.18;;;3.50;99.90;;;;;;5106961;28;20031;-71
2022/03/20 05:54:15;;;;;;;16.65;11.68;;;3.60;99.90;;;;;;5108056;28;20028;-71
2022/03/20 05:59:25;;;;;;;17.52;11.50;;;3.50;99.90;;;;;;5103331;28;20039;-71
2022/03/20 06:01:51;;;;;;;19.83;11.57;;;3.60;99.90;;;;;;5098008;28;20047;-72
2022/03/20 06:04:21;;;;;;;17.98;12.18;;;3.60;99.90;;;;;;5080904;28;20100;-71
2022/03/20 06:06:48;;;;;;;18.88;11.73;;;3.60;99.90;;;;;;5102068;27;20122;-71
2022/03/20 06:09:14;;;;;;;21.30;12.75;;;3.50;99.90;;;;;;5092763;28;20258;-72
2022/03/20 06:11:40;;;;;;;16.85;11.15;;;3.60;99.90;;;;;;5101074;28;20099;-72
2022/03/20 06:14:06;;;;;;;18.10;11.77;;;3.60;99.90;;;;;;5086105;28;20449;-71
2022/03/20 06:16:32;;;;;;;20.20;12.23;;;3.50;99.90;;;;;;5097487;28;20791;-72
2022/03/20 06:18:58;;;;;;;18.23;12.60;;;3.60;99.90;;;;;;5104771;28;20079;-71
2022/03/20 06:21:25;;;;;;;19.25;12.57;;;3.60;99.90;;;;;;5103971;28;20078;-72
2022/03/20 06:23:53;;;;;;;20.60;11.25;;;3.60;99.90;;;;;;5102372;28;20438;-72
2022/03/20 06:26:19;;;;;;;19.88;11.93;;;3.60;99.90;;;;;;5092281;28;20055;-72
2022/03/20 06:28:44;;;;;;;19.73;12.48;;;3.60;99.90;;;;;;5062911;28;20036;-72
2022/03/20 06:31:12;;;;;;;21.58;12.57;;;3.70;99.90;;;;;;5090240;28;20039;-71
2022/03/20 06:33:38;;;;;;;18.55;12.13;;;3.60;99.90;;;;;;5105633;28;20252;-71
2022/03/20 06:36:05;;;;;;;19.95;12.35;;;3.60;99.90;;;;;;5101240;28;20104;-72
2022/03/20 06:38:33;;;;;;;17.75;12.27;;;3.60;99.90;;;;;;5103088;28;20047;-73
2022/03/20 06:41:00;;;;;;;20.20;12.55;;;3.70;99.90;;;;;;5107013;28;20059;-73
2022/03/20 06:43:25;;;;;;;19.02;11.93;;;3.70;99.90;;;;;;5103280;28;20039;-73
2022/03/20 06:45:53;;;;;;;17.27;12.10;;;3.70;99.90;;;;;;5108218;28;20049;-73
2022/03/20 06:48:18;;;;;;;20.13;12.77;;;3.70;99.90;;;;;;5106691;28;20079;-73
2022/03/20 06:50:44;;;;;;;18.48;11.85;;;3.80;99.90;;;;;;5091068;28;20046;-75
2022/03/20 06:53:11;;;;;;;18.83;12.35;;;3.80;99.90;;;;;;5107922;28;20043;-75
2022/03/20 06:55:37;;;;;;;18.90;12.63;;;3.80;99.90;;;;;;5109367;28;20048;-73
2022/03/20 06:58:03;;;;;;;21.63;13.02;;;3.90;99.90;;;;;;5110222;27;20054;-73
2022/03/20 07:00:29;;;;;;;19.80;12.25;;;3.90;99.90;;;;;;5091051;28;20055;-74
2022/03/20 07:02:56;;;;;;;18.45;12.18;;;3.90;99.90;;;;;;5092417;27;20056;-75
2022/03/20 07:05:22;;;;;;;19.95;12.75;;;3.90;99.90;;;;;;5092170;28;20042;-73
2022/03/20 07:07:50;;;;;;;19.40;12.50;;;4.00;99.70;;;;;;5108105;28;20392;-74
2022/03/20 07:10:19;;;;;;;18.92;12.88;;;4.00;99.60;;;;;;5111603;28;20457;-73
2022/03/20 07:12:45;;;;;;;22.67;13.23;;;4.00;99.90;;;;;;5106486;28;20678;-74
2022/03/20 07:15:11;;;;;;;20.08;12.80;;;4.10;99.10;;;;;;5111299;27;20442;-73
2022/03/20 07:17:37;;;;;;;20.30;13.40;;;4.10;98.90;;;;;;5111176;28;20039;-73
2022/03/20 07:20:13;;;;;;;22.27;13.35;;;4.10;98.70;;;;;;5109836;28;20119;-73
2022/03/20 07:22:39;;;;;;;20.38;13.32;;;4.20;98.70;;;;;;5107346;27;20055;-73
2022/03/20 07:30:34;;;;;;;20.65;13.70;;;4.30;98.10;;;;;;5110110;27;20419;-73
2022/03/20 07:32:59;;;;;;;20.38;13.35;;;4.30;97.60;;;;;;5117434;27;20063;-72
2022/03/20 07:35:25;;;;;;;20.10;12.55;;;4.40;97.70;;;;;;5088310;28;20035;-72
2022/03/20 07:37:51;;;;;;;18.45;12.88;;;4.40;97.20;;;;;;5107617;28;20070;-71
2022/03/20 07:40:17;;;;;;;20.15;13.43;;;4.50;96.80;;;;;;5112927;28;20040;-70
2022/03/20 07:42:43;;;;;;;20.38;13.07;;;4.60;96.70;;;;;;5101759;28;20555;-70
2022/03/20 07:45:09;;;;;;;22.08;13.73;;;4.60;95.90;;;;;;5108529;27;20075;-71
2022/03/20 07:47:35;;;;;;;21.02;13.75;;;4.60;96.50;;;;;;5090453;28;20052;-72
2022/03/20 07:50:02;;;;;;;20.52;13.40;;;4.70;95.60;;;;;;5109326;28;20534;-71
2022/03/20 07:52:28;;;;;;;22.88;13.60;;;4.70;96.00;;;;;;5098484;28;20133;-74
2022/03/20 07:54:54;;;;;;;20.77;13.73;;;4.80;95.60;;;;;;5113148;28;20067;-72
2022/03/20 07:57:20;;;;;;;20.85;13.18;;;4.80;95.60;;;;;;5093202;28;20067;-71
2022/03/20 07:59:46;;;;;;;24.40;13.73;;;4.90;95.60;;;;;;5106931;28;20047;-71
2022/03/20 08:02:12;;;;;;;20.00;13.38;;;4.90;94.80;;;;;;5101797;28;20175;-72
2022/03/20 08:04:38;;;;;;;21.50;14.30;;;5.00;94.00;;;;;;5110725;28;20058;-73
2022/03/20 08:07:05;;;;;;;20.33;13.82;;;5.00;94.20;;;;;;5094015;28;20052;-74
2022/03/20 08:09:30;;;;;;;21.63;13.45;;;5.10;93.00;;;;;;5087435;28;20081;-72
2022/03/20 08:11:56;;;;;;;20.85;14.07;;;5.10;93.50;;;;;;5106880;28;20031;-73
2022/03/20 08:14:23;;;;;;;21.60;14.25;;;5.10;92.00;;;;;;5101215;28;20132;-72
2022/03/20 08:16:50;;;;;;;21.63;14.90;;;5.20;92.70;;;;;;5113798;27;20058;-72
2022/03/20 08:19:17;;;;;;;22.48;13.90;;;5.30;91.10;;;;;;5106881;28;20047;-72
2022/03/20 08:21:43;;;;;;;21.25;13.82;;;5.30;91.20;;;;;;5102450;28;20763;-73
2022/03/20 08:24:12;;;;;;;21.08;13.82;;;5.30;91.40;;;;;;5106618;28;20042;-72
2022/03/20 08:26:38;;;;;;;23.77;14.18;;;5.40;91.30;;;;;;5109589;28;20052;-73
2022/03/20 08:29:03;;;;;;;21.77;14.40;;;5.40;92.00;;;;;;5106831;28;20046;-73
2022/03/20 08:31:29;;;;;;;20.05;13.98;;;5.50;90.00;;;;;;5074434;28;20124;-73
2022/03/20 08:33:59;;;;;;;23.48;14.90;;;5.60;90.70;;;;;;5107785;28;20055;-72
2022/03/20 08:36:25;;;;;;;21.60;14.48;;;5.60;89.80;;;;;;5112302;28;20156;-72
2022/03/20 08:38:51;;;;;;;21.88;14.68;;;5.60;90.50;;;;;;5111048;28;20047;-73
2022/03/20 08:41:17;;;;;;;24.48;14.18;;;5.70;90.60;;;;;;5076388;28;20039;-73
2022/03/20 08:43:43;;;;;;;21.40;14.80;;;5.80;88.60;;;;;;5108634;28;20044;-72
2022/03/20 08:46:09;;;;;;;20.42;13.98;;;5.90;90.10;;;;;;5108337;28;20070;-73
2022/03/20 08:48:35;;;;;;;21.48;14.57;;;5.90;90.20;;;;;;5093076;28;20421;-73
2022/03/20 08:51:00;;;;;;;21.02;14.80;;;6.00;90.40;;;;;;5109522;28;20200;-72
2022/03/20 08:53:26;;;;;;;23.25;14.70;;;6.10;85.90;;;;;;5107811;28;20028;-73
2022/03/20 08:55:51;;;;;;;20.92;14.07;;;6.20;85.70;;;;;;5110569;28;20480;-72
2022/03/20 08:58:17;;;;;;;23.85;14.23;;;6.20;84.30;;;;;;5111683;28;20123;-72
2022/03/20 09:00:44;;;;;;;22.85;14.98;;;6.30;83.90;;;;;;5110995;28;20111;-72
2022/03/20 09:03:11;;;;;;;21.38;14.43;;;6.30;83.70;;;;;;5109184;28;20092;-73
2022/03/20 09:05:37;;;;;;;20.45;14.90;;;6.40;83.00;;;;;;5110177;28;20042;-72
2022/03/20 09:08:03;;;;;;;22.13;15.02;;;6.40;81.80;;;;;;5110784;28;20493;-72
2022/03/20 09:10:28;;;;;;;30.00;15.40;;;6.50;81.10;;;;;;5109830;28;20051;-73
2022/03/20 09:12:57;;;;;;;23.13;15.52;;;6.50;78.60;;;;;;5121241;27;20039;-73
2022/03/20 09:15:24;;;;;;;23.25;14.90;;;6.60;80.20;;;;;;5083818;28;20469;-73
2022/03/20 09:20:39;;;;;;;24.48;15.32;;;6.80;81.30;;;;;;5096498;27;20065;-73
2022/03/20 09:23:10;;;;;;;21.98;14.25;;;6.90;79.00;;;;;;5107643;28;20039;-73
2022/03/20 09:25:36;;;;;;;21.40;15.95;;;7.00;77.40;;;;;;5108958;28;20044;-74
2022/03/20 09:28:03;;;;;;;21.90;15.27;;;7.00;77.10;;;;;;5105187;28;20093;-73
2022/03/20 09:30:29;;;;;;;25.50;16.00;;;7.10;77.80;;;;;;5109850;27;20050;-73
2022/03/20 09:32:55;;;;;;;24.15;15.77;;;7.10;76.30;;;;;;5105961;28;20039;-73
2022/03/20 09:35:21;;;;;;;25.23;16.95;;;7.20;76.60;;;;;;5109753;28;20032;-74
2022/03/20 09:37:46;;;;;;;23.60;15.98;;;7.20;75.60;;;;;;5088984;28;20587;-74
2022/03/20 09:40:13;;;;;;;23.60;15.73;;;7.30;76.60;;;;;;5090753;28;20040;-74
2022/03/20 09:42:41;;;;;;;23.05;16.00;;;7.30;74.40;;;;;;5108544;28;20764;-74
2022/03/20 09:45:09;;;;;;;22.77;15.80;;;7.40;75.50;;;;;;5108945;28;20098;-75
2022/03/20 09:47:39;;;;;;;28.30;16.20;;;7.40;74.00;;;;;;5107397;27;20040;-73
2022/03/20 09:50:07;;;;;;;24.08;16.05;;;7.40;73.50;;;;;;5105935;27;20063;-74
2022/03/20 09:52:34;;;;;;;32.00;16.52;;;7.50;74.30;;;;;;5091728;28;20505;-74
2022/03/20 09:55:00;;;;;;;25.17;16.02;;;7.60;74.40;;;;;;5107256;28;20055;-74
2022/03/20 09:57:29;;;;;;;23.77;16.50;;;7.60;72.80;;;;;;5108700;28;20542;-73
2022/03/20 10:00:01;;;;;;;23.58;15.98;;;7.70;72.30;;;;;;5108621;28;20119;-74
2022/03/20 10:02:28;;;;;;;25.38;16.42;;;7.80;72.40;;;;;;5098017;28;20091;-74
2022/03/20 10:05:00;;;;;;;23.45;16.90;;;7.90;72.80;;;;;;5105283;28;20101;-74
2022/03/20 10:07:29;;;;;;;25.95;16.73;;;7.90;70.50;;;;;;5096523;28;20051;-75
2022/03/20 10:10:13;;;;;;;23.23;16.15;;;7.90;70.60;;;;;;5105807;28;20031;-74
2022/03/20 10:12:45;;;;;;;23.50;16.17;;;8.00;69.50;;;;;;5103369;28;20067;-74
2022/03/20 10:15:29;;;;;;;25.17;17.58;;;8.10;72.00;;;;;;5103386;28;20056;-72
2022/03/20 10:18:18;;;;;;;24.17;17.05;;;8.20;69.50;;;;;;5104089;28;20092;-74
2022/03/20 10:20:52;;;;;;;23.45;16.67;;;8.20;69.70;;;;;;5091797;28;20059;-74
2022/03/20 10:23:41;;;;;;;27.08;17.15;;;8.20;69.10;;;;;;5111723;27;20081;-74
2022/03/20 10:26:13;;;;;;;25.02;16.95;;;8.20;68.50;;;;;;5106102;28;20684;-74
2022/03/20 10:28:42;;;;;;;26.05;17.73;;;8.40;70.00;;;;;;5104201;28;20055;-71
2022/03/20 10:31:20;;;;;;;25.90;16.80;;;8.40;70.10;;;;;;5084738;28;20041;-73
2022/03/20 10:33:59;;;;;;;24.90;16.25;;;8.60;69.80;;;;;;5105663;28;20496;-74
2022/03/20 10:36:25;;;;;;;25.30;17.25;;;8.70;71.00;;;;;;5107313;28;20040;-71
2022/03/20 10:38:50;;;;;;;26.35;17.73;;;8.70;69.50;;;;;;5108585;28;20059;-72
2022/03/20 10:41:18;;;;;;;26.65;18.02;;;8.80;69.30;;;;;;5104581;28;20032;-70
2022/03/20 10:43:43;;;;;;;22.20;16.38;;;8.80;69.00;;;;;;5102795;28;20043;-72
2022/03/20 10:46:17;;;;;;;26.55;16.38;;;8.80;68.60;;;;;;5101231;28;20051;-70
2022/03/20 10:48:44;;;;;;;26.77;17.35;;;8.90;68.40;;;;;;5099841;28;20055;-70
2022/03/20 10:51:10;;;;;;;25.40;16.90;;;9.00;69.80;;;;;;5104559;28;20066;-69
2022/03/20 10:53:53;;;;;;;24.98;17.35;;;9.00;68.30;;;;;;5098230;28;20399;-72
2022/03/20 10:56:18;;;;;;;23.55;16.58;;;9.00;67.60;;;;;;5099304;28;20067;-73
2022/03/20 10:58:45;;;;;;;25.88;17.75;;;9.10;68.70;;;;;;5092894;28;20128;-73
2022/03/20 11:01:12;;;;;;;23.65;18.38;;;9.10;67.00;;;;;;5102853;28;20043;-74
2022/03/20 11:03:39;;;;;;;24.08;17.02;;;9.10;67.10;;;;;;5105112;28;20063;-70
2022/03/20 11:06:07;;;;;;;25.70;16.98;;;9.20;66.60;;;;;;5103145;28;20047;-73
2022/03/20 11:08:32;;;;;;;24.58;16.98;;;9.20;67.50;;;;;;5106050;28;20126;-73
2022/03/20 11:11:00;;;;;;;26.67;18.38;;;9.30;68.30;;;;;;5106005;28;20044;-73
2022/03/20 11:13:27;;;;;;;26.75;17.23;;;9.40;68.00;;;;;;5102309;28;20439;-72
2022/03/20 11:15:56;;;;;;;27.70;18.45;;;9.40;66.80;;;;;;5098289;28;20032;-72
2022/03/20 11:18:25;;;;;;;24.77;18.25;;;9.50;67.40;;;;;;5089355;28;20048;-74
2022/03/20 11:20:52;;;;;;;25.80;18.20;;;9.50;66.50;;;;;;5102512;28;20043;-74
2022/03/20 11:23:18;;;;;;;27.75;19.67;;;9.60;66.90;;;;;;5103185;28;20458;-74
2022/03/20 11:25:45;;;;;;;25.27;18.73;;;9.60;67.20;;;;;;5102928;28;20070;-74
2022/03/20 11:28:12;;;;;;;25.20;18.55;;;9.70;66.30;;;;;;5080385;28;20085;-73
2022/03/20 11:30:38;;;;;;;25.92;18.55;;;9.70;65.20;;;;;;5104053;27;20119;-74
2022/03/20 11:33:06;;;;;;;27.63;19.27;;;9.70;65.40;;;;;;5110403;28;20044;-73
2022/03/20 11:35:34;;;;;;;27.10;18.95;;;9.70;65.40;;;;;;5106438;28;20032;-73
2022/03/20 11:38:22;;;;;;;26.30;17.52;;;9.80;65.30;;;;;;5111593;28;20047;-73
2022/03/20 11:41:08;;;;;;;25.45;18.35;;;9.90;64.40;;;;;;5101514;28;20046;-72
2022/03/20 11:43:36;;;;;;;27.10;17.23;;;9.90;64.40;;;;;;5098468;27;20382;-72
2022/03/20 11:46:29;;;;;;;25.55;18.55;;;10.00;65.70;;;;;;5104867;28;20096;-73
2022/03/20 11:49:13;;;;;;;24.75;17.08;;;10.00;63.60;;;;;;5106414;28;20067;-73
2022/03/20 11:52:06;;;;;;;26.58;17.80;;;10.10;64.90;;;;;;5103308;28;20493;-72
2022/03/20 11:54:40;;;;;;;24.65;17.67;;;10.10;64.50;;;;;;5073142;28;20453;-72
2022/03/20 11:57:28;;;;;;;26.73;18.05;;;10.20;64.60;;;;;;5100576;28;20047;-71
2022/03/20 11:59:55;;;;;;;25.73;18.08;;;10.20;64.10;;;;;;5101537;28;20044;-72
2022/03/20 12:02:42;;;;;;;24.67;17.63;;;10.20;64.30;;;;;;5098765;28;20067;-73
2022/03/20 12:05:17;;;;;;;27.27;18.98;;;10.30;63.90;;;;;;5095008;28;20048;-73
2022/03/20 12:08:04;;;;;;;26.17;18.15;;;10.20;63.50;;;;;;5098762;28;20489;-73
2022/03/20 12:10:52;;;;;;;28.02;18.50;;;10.10;62.90;;;;;;5090561;28;20063;-73
2022/03/20 12:13:53;;;;;;;26.98;18.77;;;10.10;62.10;;;;;;5102433;28;20474;-73
2022/03/20 12:16:47;;;;;;;27.08;18.58;;;10.00;62.90;;;;;;5077278;28;20075;-75
2022/03/20 12:19:14;;;;;;;25.40;18.17;;;10.00;62.80;;;;;;5100705;27;20119;-73
2022/03/20 12:22:00;;;;;;;26.10;18.67;;;10.00;63.60;;;;;;5089751;28;20130;-75
2022/03/20 12:24:35;;;;;;;29.35;19.00;;;10.10;63.80;;;;;;5088744;28;20485;-74
2022/03/20 12:27:22;;;;;;;28.13;19.98;;;10.30;63.80;;;;;;5110995;28;20092;-74
2022/03/20 12:29:49;;;;;;;25.48;18.35;;;10.40;62.80;;;;;;5104771;28;20048;-73
2022/03/20 12:32:15;;;;;;;26.00;17.70;;;10.50;63.40;;;;;;5109037;28;20103;-74
2022/03/20 12:34:45;;;;;;;27.92;19.52;;;10.60;63.50;;;;;;5109531;28;20158;-74
2022/03/20 12:37:38;;;;;;;28.98;18.90;;;10.60;63.00;;;;;;5088951;28;20416;-74
2022/03/20 12:40:03;;;;;;;26.25;18.23;;;10.60;63.20;;;;;;5108576;28;20420;-74
2022/03/20 12:42:31;;;;;;;28.20;19.38;;;10.60;63.50;;;;;;5106640;28;20059;-74
2022/03/20 12:44:58;;;;;;;28.73;18.60;;;10.50;63.00;;;;;;5109525;28;20115;-74
2022/03/20 12:47:25;;;;;;;24.75;18.15;;;10.40;62.90;;;;;;5100466;28;20054;-73
2022/03/20 12:49:59;;;;;;;26.73;19.48;;;10.30;63.60;;;;;;5107819;28;20115;-74
2022/03/20 12:52:25;;;;;;;27.13;18.48;;;10.20;63.00;;;;;;5106667;28;20035;-74
2022/03/20 12:55:03;;;;;;;27.23;18.77;;;10.10;63.10;;;;;;5109433;27;20067;-73
2022/03/20 12:57:47;;;;;;;28.20;19.88;;;10.00;63.00;;;;;;5087576;28;20044;-74
2022/03/20 13:00:19;;;;;;;26.52;18.40;;;10.00;63.70;;;;;;5103160;28;20074;-74
2022/03/20 13:03:00;;;;;;;27.70;18.95;;;10.00;64.20;;;;;;5105614;28;20059;-74
2022/03/20 13:05:27;;;;;;;30.00;20.55;;;10.00;64.10;;;;;;5104824;28;20425;-74
2022/03/20 13:07:53;;;;;;;30.15;20.20;;;9.90;64.70;;;;;;5102967;28;20203;-74
2022/03/20 13:10:21;;;;;;;27.15;19.40;;;10.00;64.80;;;;;;5104798;28;20036;-74
2022/03/20 13:12:58;;;;;;;28.63;19.58;;;10.00;65.10;;;;;;5072493;28;20047;-74
2022/03/20 13:15:28;;;;;;;25.60;19.45;;;10.20;64.90;;;;;;5108328;28;20682;-74
2022/03/20 13:17:55;;;;;;;27.05;19.08;;;10.50;65.10;;;;;;5106584;28;20039;-74